sensor_id;sensor_type;location;lat;lon;timestamp;temperature;humidity
3198;DHT22;1611;49.394;11.136;2022-12-29T00:02:24;7.00;54.80
3198;DHT22;1611;49.394;11.136;2022-12-29T00:04:50;7.10;56.60
3198;DHT22;1611;49.394;11.136;2022-12-29T00:07:17;7.10;54.40
3198;DHT22;1611;49.394;11.136;2022-12-29T00:09:44;7.20;54.90
3198;DHT22;1611;49.394;11.136;2022-12-29T00:12:11;7.30;54.80
3198;DHT22;1611;49.394;11.136;2022-12-29T00:14:39;7.30;54.70
3198;DHT22;1611;49.394;11.136;2022-12-29T00:17:23;7.30;53.50
3198;DHT22;1611;49.394;11.136;2022-12-29T00:19:50;7.30;53.70
3198;DHT22;1611;49.394;11.136;2022-12-29T00:22:34;7.30;55.00
3198;DHT22;1611;49.394;11.136;2022-12-29T00:25:18;7.40;54.00
3198;DHT22;1611;49.394;11.136;2022-12-29T00:28:02;7.50;53.10
3198;DHT22;1611;49.394;11.136;2022-12-29T00:30:48;7.50;54.90
3198;DHT22;1611;49.394;11.136;2022-12-29T00:33:32;7.40;53.30
3198;DHT22;1611;49.394;11.136;2022-12-29T00:36:19;7.40;54.20
3198;DHT22;1611;49.394;11.136;2022-12-29T00:38:50;7.50;53.40
3198;DHT22;1611;49.394;11.136;2022-12-29T00:41:35;7.50;52.20
3198;DHT22;1611;49.394;11.136;2022-12-29T00:44:20;7.60;52.00
3198;DHT22;1611;49.394;11.136;2022-12-29T00:46:48;7.60;51.90
3198;DHT22;1611;49.394;11.136;2022-12-29T00:49:14;7.70;53.10
3198;DHT22;1611;49.394;11.136;2022-12-29T00:51:58;7.60;53.20
3198;DHT22;1611;49.394;11.136;2022-12-29T00:54:25;7.70;55.00
3198;DHT22;1611;49.394;11.136;2022-12-29T00:56:52;7.70;52.10
3198;DHT22;1611;49.394;11.136;2022-12-29T00:59:20;7.70;54.00
3198;DHT22;1611;49.394;11.136;2022-12-29T01:01:48;7.70;52.20
3198;DHT22;1611;49.394;11.136;2022-12-29T01:04:15;7.80;52.80
3198;DHT22;1611;49.394;11.136;2022-12-29T01:06:41;7.80;51.60
3198;DHT22;1611;49.394;11.136;2022-12-29T01:09:09;7.90;54.20
3198;DHT22;1611;49.394;11.136;2022-12-29T01:11:54;7.80;52.60
3198;DHT22;1611;49.394;11.136;2022-12-29T01:14:21;7.70;55.10
3198;DHT22;1611;49.394;11.136;2022-12-29T01:16:50;7.80;54.30
3198;DHT22;1611;49.394;11.136;2022-12-29T01:19:18;7.70;54.80
3198;DHT22;1611;49.394;11.136;2022-12-29T01:21:45;7.70;55.30
3198;DHT22;1611;49.394;11.136;2022-12-29T01:24:12;7.80;51.80
3198;DHT22;1611;49.394;11.136;2022-12-29T01:26:39;7.70;54.30
3198;DHT22;1611;49.394;11.136;2022-12-29T01:29:06;7.70;52.90
3198;DHT22;1611;49.394;11.136;2022-12-29T01:31:33;7.80;53.10
3198;DHT22;1611;49.394;11.136;2022-12-29T01:34:01;7.90;55.00
3198;DHT22;1611;49.394;11.136;2022-12-29T01:36:27;7.90;53.90
3198;DHT22;1611;49.394;11.136;2022-12-29T01:38:55;7.90;51.70
3198;DHT22;1611;49.394;11.136;2022-12-29T01:41:22;7.90;53.80
3198;DHT22;1611;49.394;11.136;2022-12-29T01:43:50;8.00;53.40
3198;DHT22;1611;49.394;11.136;2022-12-29T01:46:22;7.90;55.40
3198;DHT22;1611;49.394;11.136;2022-12-29T01:48:52;7.90;56.50
3198;DHT22;1611;49.394;11.136;2022-12-29T01:51:22;7.80;56.20
3198;DHT22;1611;49.394;11.136;2022-12-29T01:53:50;7.80;55.00
3198;DHT22;1611;49.394;11.136;2022-12-29T01:56:20;7.90;54.60
3198;DHT22;1611;49.394;11.136;2022-12-29T01:58:49;7.90;54.40
3198;DHT22;1611;49.394;11.136;2022-12-29T02:01:19;7.90;53.40
3198;DHT22;1611;49.394;11.136;2022-12-29T02:03:48;7.90;54.30
3198;DHT22;1611;49.394;11.136;2022-12-29T02:06:18;7.90;54.20
3198;DHT22;1611;49.394;11.136;2022-12-29T02:08:49;8.00;51.80
3198;DHT22;1611;49.394;11.136;2022-12-29T02:11:17;8.10;51.30
3198;DHT22;1611;49.394;11.136;2022-12-29T02:13:44;8.10;53.00
3198;DHT22;1611;49.394;11.136;2022-12-29T02:16:24;8.10;53.90
3198;DHT22;1611;49.394;11.136;2022-12-29T02:19:06;8.10;53.80
3198;DHT22;1611;49.394;11.136;2022-12-29T02:21:56;8.10;52.50
3198;DHT22;1611;49.394;11.136;2022-12-29T02:24:51;8.10;54.20
3198;DHT22;1611;49.394;11.136;2022-12-29T02:27:31;8.10;52.50
3198;DHT22;1611;49.394;11.136;2022-12-29T02:30:15;8.10;51.50
3198;DHT22;1611;49.394;11.136;2022-12-29T02:32:54;8.20;51.20
3198;DHT22;1611;49.394;11.136;2022-12-29T02:35:29;8.30;52.20
3198;DHT22;1611;49.394;11.136;2022-12-29T02:38:08;8.20;49.90
3198;DHT22;1611;49.394;11.136;2022-12-29T02:40:43;8.30;49.60
3198;DHT22;1611;49.394;11.136;2022-12-29T02:43:21;8.40;49.70
3198;DHT22;1611;49.394;11.136;2022-12-29T02:45:54;8.30;49.50
3198;DHT22;1611;49.394;11.136;2022-12-29T02:48:27;8.40;49.90
3198;DHT22;1611;49.394;11.136;2022-12-29T02:51:00;8.40;50.40
3198;DHT22;1611;49.394;11.136;2022-12-29T02:53:29;8.40;49.00
3198;DHT22;1611;49.394;11.136;2022-12-29T02:56:15;8.50;48.80
3198;DHT22;1611;49.394;11.136;2022-12-29T02:58:42;8.50;48.70
3198;DHT22;1611;49.394;11.136;2022-12-29T03:01:29;8.50;49.10
3198;DHT22;1611;49.394;11.136;2022-12-29T03:04:22;8.50;47.90
3198;DHT22;1611;49.394;11.136;2022-12-29T03:06:56;8.50;49.90
3198;DHT22;1611;49.394;11.136;2022-12-29T03:09:34;8.50;48.20
3198;DHT22;1611;49.394;11.136;2022-12-29T03:12:10;8.50;47.70
3198;DHT22;1611;49.394;11.136;2022-12-29T03:14:49;8.50;48.60
3198;DHT22;1611;49.394;11.136;2022-12-29T03:17:48;8.50;50.70
3198;DHT22;1611;49.394;11.136;2022-12-29T03:20:20;8.50;49.30
3198;DHT22;1611;49.394;11.136;2022-12-29T03:22:49;8.40;51.40
3198;DHT22;1611;49.394;11.136;2022-12-29T03:25:21;8.40;49.70
3198;DHT22;1611;49.394;11.136;2022-12-29T03:27:51;8.40;51.40
3198;DHT22;1611;49.394;11.136;2022-12-29T03:30:19;8.40;52.20
3198;DHT22;1611;49.394;11.136;2022-12-29T03:32:48;8.40;51.70
3198;DHT22;1611;49.394;11.136;2022-12-29T03:35:19;8.40;49.90
3198;DHT22;1611;49.394;11.136;2022-12-29T03:37:51;8.40;51.80
3198;DHT22;1611;49.394;11.136;2022-12-29T03:40:21;8.40;48.90
3198;DHT22;1611;49.394;11.136;2022-12-29T03:42:50;8.50;50.30
3198;DHT22;1611;49.394;11.136;2022-12-29T03:45:17;8.50;53.60
3198;DHT22;1611;49.394;11.136;2022-12-29T03:47:44;8.40;53.20
3198;DHT22;1611;49.394;11.136;2022-12-29T03:50:11;8.30;52.40
3198;DHT22;1611;49.394;11.136;2022-12-29T03:52:40;8.30;49.30
3198;DHT22;1611;49.394;11.136;2022-12-29T03:55:07;8.30;49.40
3198;DHT22;1611;49.394;11.136;2022-12-29T03:57:34;8.40;51.30
3198;DHT22;1611;49.394;11.136;2022-12-29T04:00:01;8.30;51.00
3198;DHT22;1611;49.394;11.136;2022-12-29T04:02:28;8.30;50.50
3198;DHT22;1611;49.394;11.136;2022-12-29T04:04:54;8.30;53.00
3198;DHT22;1611;49.394;11.136;2022-12-29T04:07:21;8.40;53.50
3198;DHT22;1611;49.394;11.136;2022-12-29T04:09:49;8.30;51.20
3198;DHT22;1611;49.394;11.136;2022-12-29T04:12:16;8.30;52.00
3198;DHT22;1611;49.394;11.136;2022-12-29T04:14:43;8.30;52.30
3198;DHT22;1611;49.394;11.136;2022-12-29T04:17:09;8.30;50.70
3198;DHT22;1611;49.394;11.136;2022-12-29T04:19:36;8.30;51.30
3198;DHT22;1611;49.394;11.136;2022-12-29T04:22:03;8.20;52.40
3198;DHT22;1611;49.394;11.136;2022-12-29T04:24:29;8.20;50.30
3198;DHT22;1611;49.394;11.136;2022-12-29T04:26:57;8.20;52.20
3198;DHT22;1611;49.394;11.136;2022-12-29T04:29:23;8.20;53.10
3198;DHT22;1611;49.394;11.136;2022-12-29T04:31:50;8.10;54.50
3198;DHT22;1611;49.394;11.136;2022-12-29T04:34:17;8.10;54.70
3198;DHT22;1611;49.394;11.136;2022-12-29T04:36:44;8.00;53.30
3198;DHT22;1611;49.394;11.136;2022-12-29T04:39:10;7.90;51.20
3198;DHT22;1611;49.394;11.136;2022-12-29T04:41:37;7.90;52.10
3198;DHT22;1611;49.394;11.136;2022-12-29T04:44:05;7.90;54.20
3198;DHT22;1611;49.394;11.136;2022-12-29T04:46:32;7.90;52.30
3198;DHT22;1611;49.394;11.136;2022-12-29T04:48:59;7.90;53.80
3198;DHT22;1611;49.394;11.136;2022-12-29T04:51:30;7.90;54.10
3198;DHT22;1611;49.394;11.136;2022-12-29T04:53:56;7.90;52.40
3198;DHT22;1611;49.394;11.136;2022-12-29T04:56:23;8.00;52.80
3198;DHT22;1611;49.394;11.136;2022-12-29T04:58:50;8.00;54.50
3198;DHT22;1611;49.394;11.136;2022-12-29T05:01:18;8.10;54.60
3198;DHT22;1611;49.394;11.136;2022-12-29T05:03:44;8.00;53.60
3198;DHT22;1611;49.394;11.136;2022-12-29T05:06:12;8.00;54.90
3198;DHT22;1611;49.394;11.136;2022-12-29T05:08:39;7.90;54.70
3198;DHT22;1611;49.394;11.136;2022-12-29T05:11:06;7.90;52.00
3198;DHT22;1611;49.394;11.136;2022-12-29T05:13:33;7.90;54.50
3198;DHT22;1611;49.394;11.136;2022-12-29T05:15:59;7.80;55.20
3198;DHT22;1611;49.394;11.136;2022-12-29T05:18:27;7.70;56.50
3198;DHT22;1611;49.394;11.136;2022-12-29T05:20:54;7.70;55.40
3198;DHT22;1611;49.394;11.136;2022-12-29T05:23:21;7.60;56.70
3198;DHT22;1611;49.394;11.136;2022-12-29T05:25:48;7.60;57.70
3198;DHT22;1611;49.394;11.136;2022-12-29T05:28:14;7.60;57.90
3198;DHT22;1611;49.394;11.136;2022-12-29T05:30:41;7.60;58.00
3198;DHT22;1611;49.394;11.136;2022-12-29T05:33:08;7.60;57.00
3198;DHT22;1611;49.394;11.136;2022-12-29T05:35:38;7.60;56.90
3198;DHT22;1611;49.394;11.136;2022-12-29T05:38:05;7.70;57.60
3198;DHT22;1611;49.394;11.136;2022-12-29T05:40:31;7.70;57.40
3198;DHT22;1611;49.394;11.136;2022-12-29T05:42:58;7.70;56.60
3198;DHT22;1611;49.394;11.136;2022-12-29T05:45:25;7.70;57.50
3198;DHT22;1611;49.394;11.136;2022-12-29T05:47:51;7.60;57.80
3198;DHT22;1611;49.394;11.136;2022-12-29T05:50:18;7.50;58.10
3198;DHT22;1611;49.394;11.136;2022-12-29T05:52:46;7.40;58.20
3198;DHT22;1611;49.394;11.136;2022-12-29T05:55:13;7.40;55.90
3198;DHT22;1611;49.394;11.136;2022-12-29T05:57:40;7.30;58.40
3198;DHT22;1611;49.394;11.136;2022-12-29T06:00:08;7.30;57.40
3198;DHT22;1611;49.394;11.136;2022-12-29T06:02:35;7.20;58.00
3198;DHT22;1611;49.394;11.136;2022-12-29T06:05:02;7.20;58.00
3198;DHT22;1611;49.394;11.136;2022-12-29T06:07:29;7.10;57.00
3198;DHT22;1611;49.394;11.136;2022-12-29T06:09:57;7.10;57.30
3198;DHT22;1611;49.394;11.136;2022-12-29T06:12:24;7.00;58.50
3198;DHT22;1611;49.394;11.136;2022-12-29T06:14:51;7.00;58.80
3198;DHT22;1611;49.394;11.136;2022-12-29T06:17:17;6.90;58.30
3198;DHT22;1611;49.394;11.136;2022-12-29T06:19:44;6.90;59.10
3198;DHT22;1611;49.394;11.136;2022-12-29T06:22:11;6.80;59.70
3198;DHT22;1611;49.394;11.136;2022-12-29T06:24:39;6.70;60.10
3198;DHT22;1611;49.394;11.136;2022-12-29T06:27:07;6.60;59.00
3198;DHT22;1611;49.394;11.136;2022-12-29T06:29:33;6.60;58.60
3198;DHT22;1611;49.394;11.136;2022-12-29T06:32:02;6.60;59.20
3198;DHT22;1611;49.394;11.136;2022-12-29T06:34:29;6.60;59.20
3198;DHT22;1611;49.394;11.136;2022-12-29T06:36:56;6.50;59.00
3198;DHT22;1611;49.394;11.136;2022-12-29T06:39:23;6.60;57.80
3198;DHT22;1611;49.394;11.136;2022-12-29T06:41:51;6.60;58.90
3198;DHT22;1611;49.394;11.136;2022-12-29T06:44:20;6.50;59.20
3198;DHT22;1611;49.394;11.136;2022-12-29T06:46:47;6.50;59.70
3198;DHT22;1611;49.394;11.136;2022-12-29T06:49:14;6.50;60.00
3198;DHT22;1611;49.394;11.136;2022-12-29T06:51:40;6.40;59.70
3198;DHT22;1611;49.394;11.136;2022-12-29T06:54:07;6.30;59.90
3198;DHT22;1611;49.394;11.136;2022-12-29T06:56:34;6.30;58.80
3198;DHT22;1611;49.394;11.136;2022-12-29T06:59:01;6.50;59.90
3198;DHT22;1611;49.394;11.136;2022-12-29T07:01:29;6.40;58.90
3198;DHT22;1611;49.394;11.136;2022-12-29T07:03:56;6.40;59.50
3198;DHT22;1611;49.394;11.136;2022-12-29T07:06:23;6.40;58.30
3198;DHT22;1611;49.394;11.136;2022-12-29T07:08:50;6.40;56.50
3198;DHT22;1611;49.394;11.136;2022-12-29T07:11:19;6.50;57.90
3198;DHT22;1611;49.394;11.136;2022-12-29T07:13:46;6.50;58.00
3198;DHT22;1611;49.394;11.136;2022-12-29T07:16:13;6.50;58.40
3198;DHT22;1611;49.394;11.136;2022-12-29T07:18:41;6.40;58.90
3198;DHT22;1611;49.394;11.136;2022-12-29T07:21:08;6.50;57.60
3198;DHT22;1611;49.394;11.136;2022-12-29T07:23:35;6.40;58.10
3198;DHT22;1611;49.394;11.136;2022-12-29T07:26:03;6.50;57.70
3198;DHT22;1611;49.394;11.136;2022-12-29T07:28:31;6.50;57.50
3198;DHT22;1611;49.394;11.136;2022-12-29T07:30:58;6.50;58.20
3198;DHT22;1611;49.394;11.136;2022-12-29T07:33:25;6.50;57.90
3198;DHT22;1611;49.394;11.136;2022-12-29T07:35:58;6.60;56.20
3198;DHT22;1611;49.394;11.136;2022-12-29T07:38:25;6.80;53.50
3198;DHT22;1611;49.394;11.136;2022-12-29T07:40:56;7.00;53.90
3198;DHT22;1611;49.394;11.136;2022-12-29T07:43:23;7.10;53.20
3198;DHT22;1611;49.394;11.136;2022-12-29T07:45:50;7.20;52.80
3198;DHT22;1611;49.394;11.136;2022-12-29T07:48:17;7.40;52.40
3198;DHT22;1611;49.394;11.136;2022-12-29T07:50:43;7.40;53.00
3198;DHT22;1611;49.394;11.136;2022-12-29T07:53:11;7.50;51.20
3198;DHT22;1611;49.394;11.136;2022-12-29T07:55:38;7.60;53.80
3198;DHT22;1611;49.394;11.136;2022-12-29T07:58:05;7.70;54.60
3198;DHT22;1611;49.394;11.136;2022-12-29T08:00:32;7.90;53.60
3198;DHT22;1611;49.394;11.136;2022-12-29T08:02:58;8.10;50.10
3198;DHT22;1611;49.394;11.136;2022-12-29T08:05:25;8.10;49.90
3198;DHT22;1611;49.394;11.136;2022-12-29T08:07:52;8.10;48.90
3198;DHT22;1611;49.394;11.136;2022-12-29T08:10:20;8.10;48.10
3198;DHT22;1611;49.394;11.136;2022-12-29T08:12:48;8.10;48.20
3198;DHT22;1611;49.394;11.136;2022-12-29T08:15:15;8.10;50.90
3198;DHT22;1611;49.394;11.136;2022-12-29T08:17:42;8.10;51.10
3198;DHT22;1611;49.394;11.136;2022-12-29T08:20:09;8.10;51.20
3198;DHT22;1611;49.394;11.136;2022-12-29T08:22:36;8.10;50.20
3198;DHT22;1611;49.394;11.136;2022-12-29T08:25:03;8.10;49.20
3198;DHT22;1611;49.394;11.136;2022-12-29T08:27:32;8.20;49.70
3198;DHT22;1611;49.394;11.136;2022-12-29T08:29:58;8.20;49.40
3198;DHT22;1611;49.394;11.136;2022-12-29T08:32:26;8.30;49.40
3198;DHT22;1611;49.394;11.136;2022-12-29T08:34:54;8.30;47.80
3198;DHT22;1611;49.394;11.136;2022-12-29T08:37:20;8.50;47.60
3198;DHT22;1611;49.394;11.136;2022-12-29T08:39:48;8.60;47.50
3198;DHT22;1611;49.394;11.136;2022-12-29T08:42:14;8.60;47.80
3198;DHT22;1611;49.394;11.136;2022-12-29T08:44:42;8.70;47.40
3198;DHT22;1611;49.394;11.136;2022-12-29T08:47:10;8.70;46.30
3198;DHT22;1611;49.394;11.136;2022-12-29T08:49:37;8.80;46.10
3198;DHT22;1611;49.394;11.136;2022-12-29T08:52:04;8.90;45.30
3198;DHT22;1611;49.394;11.136;2022-12-29T08:54:31;9.10;46.00
3198;DHT22;1611;49.394;11.136;2022-12-29T08:56:58;9.20;45.60
3198;DHT22;1611;49.394;11.136;2022-12-29T08:59:25;9.30;45.70
3198;DHT22;1611;49.394;11.136;2022-12-29T09:01:53;9.50;45.10
3198;DHT22;1611;49.394;11.136;2022-12-29T09:04:20;9.70;45.10
3198;DHT22;1611;49.394;11.136;2022-12-29T09:06:49;9.80;44.40
3198;DHT22;1611;49.394;11.136;2022-12-29T09:09:16;10.00;43.50
3198;DHT22;1611;49.394;11.136;2022-12-29T09:11:43;10.20;42.80
3198;DHT22;1611;49.394;11.136;2022-12-29T09:14:11;10.30;42.60
3198;DHT22;1611;49.394;11.136;2022-12-29T09:16:38;10.40;41.80
3198;DHT22;1611;49.394;11.136;2022-12-29T09:19:20;10.50;40.90
3198;DHT22;1611;49.394;11.136;2022-12-29T09:21:47;10.50;41.60
3198;DHT22;1611;49.394;11.136;2022-12-29T09:24:14;10.60;40.70
3198;DHT22;1611;49.394;11.136;2022-12-29T09:26:40;10.70;41.10
3198;DHT22;1611;49.394;11.136;2022-12-29T09:29:07;10.80;40.90
3198;DHT22;1611;49.394;11.136;2022-12-29T09:31:34;10.80;41.00
3198;DHT22;1611;49.394;11.136;2022-12-29T09:34:01;10.90;41.90
3198;DHT22;1611;49.394;11.136;2022-12-29T09:36:29;10.90;41.30
3198;DHT22;1611;49.394;11.136;2022-12-29T09:38:55;11.00;40.50
3198;DHT22;1611;49.394;11.136;2022-12-29T09:41:28;11.10;39.90
3198;DHT22;1611;49.394;11.136;2022-12-29T09:44:06;11.20;40.70
3198;DHT22;1611;49.394;11.136;2022-12-29T09:46:36;11.20;39.90
3198;DHT22;1611;49.394;11.136;2022-12-29T09:49:11;11.30;39.90
3198;DHT22;1611;49.394;11.136;2022-12-29T09:51:43;11.40;39.60
3198;DHT22;1611;49.394;11.136;2022-12-29T09:54:28;11.40;39.80
3198;DHT22;1611;49.394;11.136;2022-12-29T09:56:58;11.40;39.50
3198;DHT22;1611;49.394;11.136;2022-12-29T09:59:35;11.20;40.10
3198;DHT22;1611;49.394;11.136;2022-12-29T10:02:15;11.20;40.70
3198;DHT22;1611;49.394;11.136;2022-12-29T10:04:43;11.40;40.40
3198;DHT22;1611;49.394;11.136;2022-12-29T10:07:15;11.50;40.90
3198;DHT22;1611;49.394;11.136;2022-12-29T10:09:48;11.60;40.50
3198;DHT22;1611;49.394;11.136;2022-12-29T10:12:26;11.60;40.50
3198;DHT22;1611;49.394;11.136;2022-12-29T10:15:02;11.60;40.40
3198;DHT22;1611;49.394;11.136;2022-12-29T10:17:40;11.70;41.60
3198;DHT22;1611;49.394;11.136;2022-12-29T10:20:20;11.80;39.80
3198;DHT22;1611;49.394;11.136;2022-12-29T10:23:03;11.90;39.80
3198;DHT22;1611;49.394;11.136;2022-12-29T10:25:38;11.90;40.10
3198;DHT22;1611;49.394;11.136;2022-12-29T10:28:09;11.80;40.00
3198;DHT22;1611;49.394;11.136;2022-12-29T10:30:38;11.80;40.20
3198;DHT22;1611;49.394;11.136;2022-12-29T10:33:11;11.70;40.50
3198;DHT22;1611;49.394;11.136;2022-12-29T10:35:42;11.70;41.00
3198;DHT22;1611;49.394;11.136;2022-12-29T10:38:17;11.70;41.40
3198;DHT22;1611;49.394;11.136;2022-12-29T10:40:50;11.80;40.60
3198;DHT22;1611;49.394;11.136;2022-12-29T10:43:23;11.80;41.20
3198;DHT22;1611;49.394;11.136;2022-12-29T10:45:52;11.80;41.60
3198;DHT22;1611;49.394;11.136;2022-12-29T10:48:21;11.70;40.90
3198;DHT22;1611;49.394;11.136;2022-12-29T10:50:49;11.70;41.20
3198;DHT22;1611;49.394;11.136;2022-12-29T10:53:21;11.60;41.90
3198;DHT22;1611;49.394;11.136;2022-12-29T10:55:49;11.70;42.10
3198;DHT22;1611;49.394;11.136;2022-12-29T10:58:17;11.70;42.50
3198;DHT22;1611;49.394;11.136;2022-12-29T11:00:49;11.70;42.70
3198;DHT22;1611;49.394;11.136;2022-12-29T11:03:40;11.80;43.20
3198;DHT22;1611;49.394;11.136;2022-12-29T11:06:14;11.80;42.10
3198;DHT22;1611;49.394;11.136;2022-12-29T11:08:52;11.80;41.80
3198;DHT22;1611;49.394;11.136;2022-12-29T11:11:23;11.80;41.80
3198;DHT22;1611;49.394;11.136;2022-12-29T11:13:56;11.80;42.00
3198;DHT22;1611;49.394;11.136;2022-12-29T11:16:28;11.90;42.70
3198;DHT22;1611;49.394;11.136;2022-12-29T11:18:57;11.90;42.10
3198;DHT22;1611;49.394;11.136;2022-12-29T11:21:28;12.00;42.40
3198;DHT22;1611;49.394;11.136;2022-12-29T11:24:00;12.10;40.90
3198;DHT22;1611;49.394;11.136;2022-12-29T11:26:27;12.20;41.00
3198;DHT22;1611;49.394;11.136;2022-12-29T11:29:25;12.30;40.80
3198;DHT22;1611;49.394;11.136;2022-12-29T11:31:53;12.50;40.60
3198;DHT22;1611;49.394;11.136;2022-12-29T11:34:22;12.60;39.40
3198;DHT22;1611;49.394;11.136;2022-12-29T11:36:53;12.70;40.00
3198;DHT22;1611;49.394;11.136;2022-12-29T11:39:34;12.70;39.80
3198;DHT22;1611;49.394;11.136;2022-12-29T11:42:03;12.70;39.70
3198;DHT22;1611;49.394;11.136;2022-12-29T11:44:36;12.80;39.70
3198;DHT22;1611;49.394;11.136;2022-12-29T11:47:04;12.90;39.50
3198;DHT22;1611;49.394;11.136;2022-12-29T11:49:31;12.90;39.90
3198;DHT22;1611;49.394;11.136;2022-12-29T11:51:59;12.90;38.80
3198;DHT22;1611;49.394;11.136;2022-12-29T11:54:30;13.00;39.00
3198;DHT22;1611;49.394;11.136;2022-12-29T11:57:09;13.10;39.20
3198;DHT22;1611;49.394;11.136;2022-12-29T11:59:41;13.30;38.70
3198;DHT22;1611;49.394;11.136;2022-12-29T12:02:34;13.20;39.40
3198;DHT22;1611;49.394;11.136;2022-12-29T12:05:12;13.30;38.10
3198;DHT22;1611;49.394;11.136;2022-12-29T12:07:41;13.30;38.40
3198;DHT22;1611;49.394;11.136;2022-12-29T12:10:18;13.30;38.80
3198;DHT22;1611;49.394;11.136;2022-12-29T12:12:56;13.40;39.10
3198;DHT22;1611;49.394;11.136;2022-12-29T12:15:28;13.50;38.40
3198;DHT22;1611;49.394;11.136;2022-12-29T12:18:02;13.50;38.70
3198;DHT22;1611;49.394;11.136;2022-12-29T12:20:38;13.50;38.30
3198;DHT22;1611;49.394;11.136;2022-12-29T12:23:19;13.50;39.60
3198;DHT22;1611;49.394;11.136;2022-12-29T12:25:56;13.50;38.60
3198;DHT22;1611;49.394;11.136;2022-12-29T12:28:34;13.50;38.60
3198;DHT22;1611;49.394;11.136;2022-12-29T12:31:05;13.60;38.60
3198;DHT22;1611;49.394;11.136;2022-12-29T12:33:36;13.50;38.90
3198;DHT22;1611;49.394;11.136;2022-12-29T12:36:19;13.60;38.80
3198;DHT22;1611;49.394;11.136;2022-12-29T12:38:54;13.60;39.00
3198;DHT22;1611;49.394;11.136;2022-12-29T12:41:31;13.60;39.40
3198;DHT22;1611;49.394;11.136;2022-12-29T12:44:04;13.50;38.80
3198;DHT22;1611;49.394;11.136;2022-12-29T12:46:58;13.50;39.20
3198;DHT22;1611;49.394;11.136;2022-12-29T12:52:39;13.50;39.20
3198;DHT22;1611;49.394;11.136;2022-12-29T12:55:24;13.40;39.80
3198;DHT22;1611;49.394;11.136;2022-12-29T12:58:01;13.50;39.50
3198;DHT22;1611;49.394;11.136;2022-12-29T13:00:37;13.50;39.80
3198;DHT22;1611;49.394;11.136;2022-12-29T13:03:12;13.30;39.90
3198;DHT22;1611;49.394;11.136;2022-12-29T13:06:04;13.30;41.30
3198;DHT22;1611;49.394;11.136;2022-12-29T13:11:46;13.00;41.60
3198;DHT22;1611;49.394;11.136;2022-12-29T13:14:31;12.90;43.00
3198;DHT22;1611;49.394;11.136;2022-12-29T13:17:05;12.90;44.50
3198;DHT22;1611;49.394;11.136;2022-12-29T13:19:39;12.80;44.50
3198;DHT22;1611;49.394;11.136;2022-12-29T13:22:10;12.70;43.70
3198;DHT22;1611;49.394;11.136;2022-12-29T13:24:47;12.70;43.80
3198;DHT22;1611;49.394;11.136;2022-12-29T13:27:23;12.70;44.50
3198;DHT22;1611;49.394;11.136;2022-12-29T13:30:00;12.70;43.30
3198;DHT22;1611;49.394;11.136;2022-12-29T13:32:49;12.70;42.90
3198;DHT22;1611;49.394;11.136;2022-12-29T13:35:30;12.60;43.70
3198;DHT22;1611;49.394;11.136;2022-12-29T13:38:03;12.70;43.90
3198;DHT22;1611;49.394;11.136;2022-12-29T13:40:36;12.70;43.40
3198;DHT22;1611;49.394;11.136;2022-12-29T13:43:05;12.70;44.10
3198;DHT22;1611;49.394;11.136;2022-12-29T13:45:34;12.70;43.30
3198;DHT22;1611;49.394;11.136;2022-12-29T13:48:06;12.60;43.60
3198;DHT22;1611;49.394;11.136;2022-12-29T13:50:38;12.60;43.70
3198;DHT22;1611;49.394;11.136;2022-12-29T13:53:14;12.70;44.20
3198;DHT22;1611;49.394;11.136;2022-12-29T13:55:48;12.70;43.30
3198;DHT22;1611;49.394;11.136;2022-12-29T13:58:24;12.70;44.30
3198;DHT22;1611;49.394;11.136;2022-12-29T14:00:57;12.80;44.20
3198;DHT22;1611;49.394;11.136;2022-12-29T14:03:49;12.70;44.10
3198;DHT22;1611;49.394;11.136;2022-12-29T14:06:21;12.60;43.40
3198;DHT22;1611;49.394;11.136;2022-12-29T14:08:50;12.50;43.90
3198;DHT22;1611;49.394;11.136;2022-12-29T14:11:21;12.50;44.90
3198;DHT22;1611;49.394;11.136;2022-12-29T14:13:50;12.40;44.50
3198;DHT22;1611;49.394;11.136;2022-12-29T14:16:30;12.40;45.30
3198;DHT22;1611;49.394;11.136;2022-12-29T14:19:05;12.30;46.10
3198;DHT22;1611;49.394;11.136;2022-12-29T14:21:32;12.20;47.20
3198;DHT22;1611;49.394;11.136;2022-12-29T14:33:13;12.00;49.00
3198;DHT22;1611;49.394;11.136;2022-12-29T14:35:43;12.00;48.90
3198;DHT22;1611;49.394;11.136;2022-12-29T14:38:23;12.00;48.80
3198;DHT22;1611;49.394;11.136;2022-12-29T14:40:50;11.90;49.00
3198;DHT22;1611;49.394;11.136;2022-12-29T14:43:24;11.90;51.20
3198;DHT22;1611;49.394;11.136;2022-12-29T14:45:58;12.00;50.20
3198;DHT22;1611;49.394;11.136;2022-12-29T14:48:36;11.80;49.30
3198;DHT22;1611;49.394;11.136;2022-12-29T14:51:19;11.80;49.30
3198;DHT22;1611;49.394;11.136;2022-12-29T14:53:48;11.70;50.00
3198;DHT22;1611;49.394;11.136;2022-12-29T14:56:17;11.70;50.00
3198;DHT22;1611;49.394;11.136;2022-12-29T14:58:48;11.70;49.70
3198;DHT22;1611;49.394;11.136;2022-12-29T15:01:19;11.70;50.30
3198;DHT22;1611;49.394;11.136;2022-12-29T15:03:49;11.70;50.30
3198;DHT22;1611;49.394;11.136;2022-12-29T15:06:18;11.70;50.80
3198;DHT22;1611;49.394;11.136;2022-12-29T15:08:51;11.60;50.60
3198;DHT22;1611;49.394;11.136;2022-12-29T15:11:22;11.60;50.40
3198;DHT22;1611;49.394;11.136;2022-12-29T15:13:49;11.60;50.70
3198;DHT22;1611;49.394;11.136;2022-12-29T15:16:24;11.60;50.70
3198;DHT22;1611;49.394;11.136;2022-12-29T15:18:52;11.60;50.90
3198;DHT22;1611;49.394;11.136;2022-12-29T15:21:24;11.60;51.50
3198;DHT22;1611;49.394;11.136;2022-12-29T15:23:52;11.50;51.60
3198;DHT22;1611;49.394;11.136;2022-12-29T15:26:20;11.40;51.50
3198;DHT22;1611;49.394;11.136;2022-12-29T15:28:49;11.50;51.90
3198;DHT22;1611;49.394;11.136;2022-12-29T15:31:18;11.50;52.20
3198;DHT22;1611;49.394;11.136;2022-12-29T15:33:47;11.40;51.80
3198;DHT22;1611;49.394;11.136;2022-12-29T15:36:18;11.40;52.60
3198;DHT22;1611;49.394;11.136;2022-12-29T15:38:47;11.30;53.50
3198;DHT22;1611;49.394;11.136;2022-12-29T15:41:28;11.30;54.50
3198;DHT22;1611;49.394;11.136;2022-12-29T15:44:07;11.30;53.50
3198;DHT22;1611;49.394;11.136;2022-12-29T15:46:36;11.20;53.40
3198;DHT22;1611;49.394;11.136;2022-12-29T15:49:05;11.20;53.00
3198;DHT22;1611;49.394;11.136;2022-12-29T15:51:35;11.20;53.90
3198;DHT22;1611;49.394;11.136;2022-12-29T15:54:05;11.10;53.90
3198;DHT22;1611;49.394;11.136;2022-12-29T15:56:33;11.10;55.20
3198;DHT22;1611;49.394;11.136;2022-12-29T15:59:00;11.10;55.70
3198;DHT22;1611;49.394;11.136;2022-12-29T16:01:29;10.90;55.20
3198;DHT22;1611;49.394;11.136;2022-12-29T16:03:58;10.80;55.80
3198;DHT22;1611;49.394;11.136;2022-12-29T16:06:31;10.80;55.20
3198;DHT22;1611;49.394;11.136;2022-12-29T16:09:00;10.80;56.50
3198;DHT22;1611;49.394;11.136;2022-12-29T16:11:32;10.70;56.40
3198;DHT22;1611;49.394;11.136;2022-12-29T16:14:01;10.70;56.20
3198;DHT22;1611;49.394;11.136;2022-12-29T16:16:30;10.70;55.50
3198;DHT22;1611;49.394;11.136;2022-12-29T16:18:58;10.80;55.50
3198;DHT22;1611;49.394;11.136;2022-12-29T16:21:28;10.80;56.10
3198;DHT22;1611;49.394;11.136;2022-12-29T16:24:00;10.70;57.10
3198;DHT22;1611;49.394;11.136;2022-12-29T16:26:29;10.70;57.20
3198;DHT22;1611;49.394;11.136;2022-12-29T16:28:57;10.70;56.50
3198;DHT22;1611;49.394;11.136;2022-12-29T16:31:33;10.80;55.90
3198;DHT22;1611;49.394;11.136;2022-12-29T16:34:12;10.80;55.90
3198;DHT22;1611;49.394;11.136;2022-12-29T16:36:51;10.90;56.30